createdAt,value
2022-10-22T00:00:19.262Z,10.04
2022-10-22T00:02:46.406Z,10.02
2022-10-22T00:05:13.640Z,9.99
2022-10-22T00:07:41.135Z,10.02
2022-10-22T00:10:09.465Z,9.99
2022-10-22T00:12:36.658Z,9.95
2022-10-22T00:15:06.283Z,9.92
2022-10-22T00:17:33.599Z,9.91
2022-10-22T00:20:00.675Z,9.94
2022-10-22T00:22:27.883Z,9.98
2022-10-22T00:24:55.029Z,10.01
2022-10-22T00:27:22.181Z,10.01
2022-10-22T00:29:49.267Z,10.02
2022-10-22T00:32:17.592Z,10.04
2022-10-22T00:34:45.394Z,10.06
2022-10-22T00:37:12.495Z,10.06
2022-10-22T00:39:39.593Z,10.04
2022-10-22T00:42:06.596Z,10.02
2022-10-22T00:45:02.009Z,10.00
2022-10-22T00:47:34.799Z,9.98
2022-10-22T00:52:36.635Z,9.96
2022-10-22T00:55:04.740Z,9.93
2022-10-22T00:57:32.747Z,9.95
2022-10-22T01:00:00.283Z,9.93
2022-10-22T01:02:27.817Z,9.92
2022-10-22T01:04:56.819Z,9.91
2022-10-22T01:07:26.265Z,9.91
2022-10-22T01:10:05.152Z,9.88
2022-10-22T01:12:44.051Z,9.90
2022-10-22T01:15:22.197Z,9.83
2022-10-22T01:17:57.964Z,9.82
2022-10-22T01:20:39.584Z,9.82
2022-10-22T01:23:25.624Z,9.80
2022-10-22T01:25:58.696Z,9.78
2022-10-22T01:28:53.012Z,9.77
2022-10-22T01:31:23.741Z,9.70
2022-10-22T01:33:54.857Z,9.69
2022-10-22T01:36:22.881Z,9.65
2022-10-22T01:38:51.767Z,9.61
2022-10-22T01:41:19.815Z,9.58
2022-10-22T01:43:46.858Z,9.58
2022-10-22T01:46:14.465Z,9.53
2022-10-22T01:48:59.861Z,9.54
2022-10-22T01:51:50.289Z,9.47
2022-10-22T01:54:27.918Z,9.44
2022-10-22T01:57:08.643Z,9.37
2022-10-22T01:59:49.645Z,9.33
2022-10-22T02:02:27.756Z,9.31
2022-10-22T02:05:01.018Z,9.27
2022-10-22T02:07:33.337Z,9.24
2022-10-22T02:10:02.715Z,9.25
2022-10-22T02:12:32.751Z,9.26
2022-10-22T02:15:02.573Z,9.24
2022-10-22T02:17:33.831Z,9.18
2022-10-22T02:20:08.916Z,9.15
2022-10-22T02:22:36.378Z,9.14
2022-10-22T02:25:04.072Z,9.13
2022-10-22T02:27:36.266Z,9.03
2022-10-22T02:30:07.034Z,9.04
2022-10-22T02:32:39.407Z,9.09
2022-10-22T02:35:10.567Z,9.05
2022-10-22T02:37:39.098Z,8.97
2022-10-22T02:40:07.370Z,8.97
2022-10-22T02:42:36.578Z,8.99
2022-10-22T02:45:04.097Z,8.98
2022-10-22T02:47:31.081Z,8.99
2022-10-22T02:49:58.095Z,8.97
2022-10-22T02:52:27.012Z,8.93
2022-10-22T02:54:53.984Z,8.89
2022-10-22T02:59:53.119Z,8.93
2022-10-22T03:02:20.939Z,8.89
2022-10-22T03:04:48.143Z,8.89
2022-10-22T03:07:15.229Z,8.86
2022-10-22T03:09:43.676Z,8.83
2022-10-22T03:12:10.810Z,8.79
2022-10-22T03:14:38.042Z,8.76
2022-10-22T03:17:05.335Z,8.76
2022-10-22T03:19:32.809Z,8.78
2022-10-22T03:22:02.949Z,8.75
2022-10-22T03:24:34.909Z,8.72
2022-10-22T03:27:04.457Z,8.70
2022-10-22T03:29:33.406Z,8.72
2022-10-22T03:32:00.507Z,8.73
2022-10-22T03:34:27.829Z,8.74
2022-10-22T03:36:56.741Z,8.72
2022-10-22T03:39:24.422Z,8.72
2022-10-22T03:41:52.787Z,8.73
2022-10-22T03:44:22.565Z,8.73
2022-10-22T03:46:49.662Z,8.72
2022-10-22T03:49:16.966Z,8.67
2022-10-22T03:51:44.867Z,8.67
2022-10-22T03:54:11.839Z,8.66
2022-10-22T03:56:38.881Z,8.65
2022-10-22T03:59:05.835Z,8.62
2022-10-22T04:01:34.663Z,8.59
2022-10-22T04:04:02.025Z,8.60
2022-10-22T04:06:30.309Z,8.58
2022-10-22T04:08:57.530Z,8.57
2022-10-22T04:11:24.887Z,8.59
2022-10-22T04:13:52.082Z,8.57
2022-10-22T04:16:21.454Z,8.55
2022-10-22T04:18:51.429Z,8.56
2022-10-22T04:21:19.927Z,8.52
2022-10-22T04:23:47.941Z,8.50
2022-10-22T04:26:16.356Z,8.48
2022-10-22T04:28:43.930Z,8.46
2022-10-22T04:31:13.256Z,8.47
2022-10-22T04:33:41.259Z,8.46
2022-10-22T04:36:12.752Z,8.46
2022-10-22T04:38:39.946Z,8.51
2022-10-22T04:41:11.958Z,8.42
2022-10-22T04:43:39.584Z,8.37
2022-10-22T04:46:07.653Z,8.29
2022-10-22T04:48:34.956Z,8.21
2022-10-22T04:51:01.963Z,8.14
2022-10-22T04:53:30.771Z,8.12
2022-10-22T04:56:08.478Z,8.21
2022-10-22T04:58:36.017Z,8.23
2022-10-22T05:01:11.300Z,8.24
2022-10-22T05:03:38.841Z,8.27
2022-10-22T05:06:07.348Z,8.28
2022-10-22T05:08:36.677Z,8.24
2022-10-22T05:11:11.819Z,8.25
2022-10-22T05:13:39.657Z,8.25
2022-10-22T05:16:07.401Z,8.18
2022-10-22T05:18:36.688Z,8.19
2022-10-22T05:21:05.460Z,8.18
2022-10-22T05:23:33.340Z,8.18
2022-10-22T05:26:05.394Z,8.21
2022-10-22T05:28:33.692Z,8.21
2022-10-22T05:31:02.898Z,8.20
2022-10-22T05:33:32.985Z,8.16
2022-10-22T05:36:01.128Z,8.16
2022-10-22T05:38:28.974Z,8.13
2022-10-22T05:41:06.757Z,8.12
2022-10-22T05:43:35.242Z,8.15
2022-10-22T05:46:05.384Z,8.11
2022-10-22T05:51:07.084Z,8.11
2022-10-22T05:53:37.762Z,8.12
2022-10-22T05:56:09.776Z,8.13
2022-10-22T05:58:37.602Z,8.15
2022-10-22T06:01:06.039Z,8.15
2022-10-22T06:03:34.080Z,8.14
2022-10-22T06:06:04.387Z,8.15
2022-10-22T06:08:31.899Z,8.17
2022-10-22T06:11:00.280Z,8.23
2022-10-22T06:13:29.001Z,8.33
2022-10-22T06:15:56.987Z,8.33
2022-10-22T06:18:24.839Z,8.30
2022-10-22T06:20:52.341Z,8.28
2022-10-22T06:23:19.908Z,8.30
2022-10-22T06:25:56.661Z,8.32
2022-10-22T06:31:00.585Z,8.35
2022-10-22T06:33:29.141Z,8.41
2022-10-22T06:36:07.396Z,8.46
2022-10-22T06:38:35.800Z,8.55
2022-10-22T06:41:05.146Z,8.64
2022-10-22T06:43:32.320Z,8.72
2022-10-22T06:46:03.720Z,8.78
2022-10-22T06:48:31.218Z,8.83
2022-10-22T06:51:02.287Z,8.86
2022-10-22T06:53:30.107Z,8.90
2022-10-22T06:55:57.958Z,8.96
2022-10-22T06:58:25.778Z,9.01
2022-10-22T07:01:03.912Z,9.04
2022-10-22T07:03:32.022Z,9.12
2022-10-22T07:06:03.450Z,9.21
2022-10-22T07:08:31.796Z,9.28
2022-10-22T07:11:07.700Z,9.33
2022-10-22T07:13:35.829Z,9.44
2022-10-22T07:16:04.923Z,9.44
2022-10-22T07:18:32.506Z,9.49
2022-10-22T07:21:00.040Z,9.57
2022-10-22T07:23:27.651Z,9.63
2022-10-22T07:25:57.787Z,9.69
2022-10-22T07:28:25.801Z,9.77
2022-10-22T07:30:53.951Z,9.78
2022-10-22T07:33:22.551Z,9.81
2022-10-22T07:35:50.556Z,9.86
2022-10-22T07:38:17.780Z,9.87
2022-10-22T07:40:45.645Z,9.93
2022-10-22T07:43:13.219Z,9.97
2022-10-22T07:45:40.359Z,10.01
2022-10-22T07:48:08.198Z,10.05
2022-10-22T07:50:37.932Z,10.13
2022-10-22T07:53:05.291Z,10.15
2022-10-22T07:55:34.601Z,10.20
2022-10-22T07:58:03.716Z,10.27
2022-10-22T08:00:31.092Z,10.32
2022-10-22T08:02:58.416Z,10.32
2022-10-22T08:05:25.660Z,10.34
2022-10-22T08:07:54.411Z,10.40
2022-10-22T08:10:21.681Z,10.42
2022-10-22T08:12:49.003Z,10.44
2022-10-22T08:15:16.678Z,10.45
2022-10-22T08:17:44.430Z,10.45
2022-10-22T08:20:12.702Z,10.53
2022-10-22T08:22:40.037Z,10.57
2022-10-22T08:25:10.560Z,10.61
2022-10-22T08:27:38.592Z,10.68
2022-10-22T08:30:07.252Z,10.75
2022-10-22T08:32:34.719Z,10.76
2022-10-22T08:35:01.938Z,10.85
2022-10-22T08:37:29.779Z,10.84
2022-10-22T08:39:57.316Z,10.88
2022-10-22T08:42:54.393Z,10.91
2022-10-22T08:45:25.014Z,10.96
2022-10-22T08:48:10.216Z,11.01
2022-10-22T08:50:40.877Z,11.05
2022-10-22T08:53:14.599Z,11.11
2022-10-22T08:55:42.496Z,11.15
2022-10-22T08:58:20.624Z,11.19
2022-10-22T09:00:56.515Z,11.22
2022-10-22T09:03:35.869Z,11.22
2022-10-22T09:06:09.760Z,11.26
2022-10-22T09:08:38.646Z,11.26
2022-10-22T09:11:14.339Z,11.32
2022-10-22T09:13:45.479Z,11.38
2022-10-22T09:16:18.426Z,11.43
2022-10-22T09:18:59.722Z,11.46
2022-10-22T09:21:34.278Z,11.50
2022-10-22T09:24:10.221Z,11.51
2022-10-22T09:26:40.533Z,11.53
2022-10-22T09:29:17.872Z,11.57
2022-10-22T09:31:45.510Z,11.62
2022-10-22T09:34:15.928Z,11.66
2022-10-22T09:36:43.373Z,11.71
2022-10-22T09:39:24.769Z,11.76
2022-10-22T09:41:52.396Z,11.84
2022-10-22T09:44:22.276Z,11.86
2022-10-22T09:46:50.339Z,11.89
2022-10-22T09:49:19.788Z,11.96
2022-10-22T09:51:53.465Z,12.02
2022-10-22T09:54:23.857Z,12.09
2022-10-22T09:56:55.661Z,12.11
2022-10-22T09:59:32.031Z,12.16
2022-10-22T10:02:20.019Z,12.22
2022-10-22T10:04:56.176Z,12.24
2022-10-22T10:07:30.128Z,12.26
2022-10-22T10:12:59.333Z,12.32
2022-10-22T10:15:34.055Z,12.34
2022-10-22T10:18:10.692Z,12.34
2022-10-22T10:20:47.233Z,12.41
2022-10-22T10:23:25.463Z,12.46
2022-10-22T10:26:01.827Z,12.47
2022-10-22T10:28:43.079Z,12.53
2022-10-22T10:31:21.478Z,12.54
2022-10-22T10:34:02.741Z,12.56
2022-10-22T10:36:37.296Z,12.60
2022-10-22T10:39:10.887Z,12.63
2022-10-22T10:41:49.678Z,12.66
2022-10-22T10:44:36.237Z,12.71
2022-10-22T10:47:19.230Z,12.77
2022-10-22T10:49:47.707Z,12.77
2022-10-22T10:52:23.491Z,12.80
2022-10-22T10:55:05.731Z,12.83
2022-10-22T10:57:45.807Z,12.86
2022-10-22T11:00:17.471Z,12.89
2022-10-22T11:03:21.790Z,12.92
2022-10-22T11:05:53.717Z,12.95
2022-10-22T11:08:25.152Z,12.98
2022-10-22T11:10:55.560Z,13.02
2022-10-22T11:13:31.225Z,13.03
2022-10-22T11:16:01.770Z,13.07
2022-10-22T11:18:37.929Z,13.13
2022-10-22T11:21:16.016Z,13.15
2022-10-22T11:23:48.653Z,13.18
2022-10-22T11:26:26.084Z,13.19
2022-10-22T11:28:55.195Z,13.23
2022-10-22T11:31:24.389Z,13.29
2022-10-22T11:34:05.159Z,13.32
2022-10-22T11:36:43.736Z,13.36
2022-10-22T11:39:41.016Z,13.35
2022-10-22T11:42:12.979Z,13.36
2022-10-22T11:44:50.093Z,13.35
2022-10-22T11:47:23.981Z,13.35
2022-10-22T11:50:03.037Z,13.37
2022-10-22T11:52:42.059Z,13.38
2022-10-22T11:55:33.167Z,13.37
2022-10-22T11:58:02.426Z,13.42
2022-10-22T12:00:46.585Z,13.41
2022-10-22T12:03:18.646Z,13.44
2022-10-22T12:06:03.722Z,13.43
2022-10-22T12:08:33.549Z,13.45
2022-10-22T12:11:22.443Z,13.45
2022-10-22T12:14:12.275Z,13.51
2022-10-22T12:16:55.861Z,13.49
2022-10-22T12:19:30.760Z,13.49
2022-10-22T12:22:12.025Z,13.51
2022-10-22T12:24:42.543Z,13.46
2022-10-22T12:27:22.370Z,13.48
2022-10-22T12:29:54.910Z,13.48
2022-10-22T12:32:22.246Z,13.50
2022-10-22T12:34:51.566Z,13.48
2022-10-22T12:37:20.848Z,13.50
2022-10-22T12:39:48.734Z,13.51
2022-10-22T12:42:18.542Z,13.52
2022-10-22T12:44:45.951Z,13.53
2022-10-22T12:47:17.192Z,13.53
2022-10-22T12:49:47.853Z,13.55
2022-10-22T12:52:18.105Z,13.54
2022-10-22T12:54:48.164Z,13.52
2022-10-22T12:57:18.183Z,13.52
2022-10-22T12:59:49.887Z,13.55
2022-10-22T13:02:21.366Z,13.58
2022-10-22T13:05:22.974Z,13.61
2022-10-22T13:07:52.505Z,13.61
2022-10-22T13:10:26.515Z,13.62
2022-10-22T13:12:57.133Z,13.65
2022-10-22T13:15:37.786Z,13.64
2022-10-22T13:18:15.553Z,13.64
2022-10-22T13:20:55.545Z,13.65
2022-10-22T13:23:25.279Z,13.66
2022-10-22T13:26:04.374Z,13.63
2022-10-22T13:28:33.187Z,13.65
2022-10-22T13:31:02.562Z,13.61
2022-10-22T13:33:33.924Z,13.60
2022-10-22T13:36:01.830Z,13.59
2022-10-22T13:38:29.951Z,13.58
2022-10-22T13:40:57.786Z,13.57
2022-10-22T13:43:27.028Z,13.58
2022-10-22T13:45:58.214Z,13.57
2022-10-22T13:48:29.040Z,13.60
2022-10-22T13:50:56.271Z,13.62
2022-10-22T13:53:26.273Z,13.61
2022-10-22T13:55:54.704Z,13.65
2022-10-22T13:58:24.291Z,13.60
2022-10-22T14:00:55.360Z,13.61
2022-10-22T14:03:28.850Z,13.55
2022-10-22T14:05:56.662Z,13.55
2022-10-22T14:08:25.461Z,13.52
2022-10-22T14:10:53.037Z,13.50
2022-10-22T14:13:21.541Z,13.45
2022-10-22T14:15:52.175Z,13.43
2022-10-22T14:18:24.525Z,13.39
2022-10-22T14:20:54.542Z,13.38
2022-10-22T14:23:23.811Z,13.36
2022-10-22T14:25:53.194Z,13.36
2022-10-22T14:28:20.751Z,13.37
2022-10-22T14:30:48.164Z,13.37
2022-10-22T14:33:19.180Z,13.36
2022-10-22T14:35:48.969Z,13.36
2022-10-22T14:38:18.088Z,13.34
2022-10-22T14:40:45.945Z,13.32
2022-10-22T14:43:19.039Z,13.36
2022-10-22T14:45:46.861Z,13.38
2022-10-22T14:48:14.133Z,13.38
2022-10-22T14:50:41.185Z,13.38
2022-10-22T14:53:10.821Z,13.37
2022-10-22T14:55:38.225Z,13.33
2022-10-22T14:58:05.596Z,13.35
2022-10-22T15:00:33.199Z,13.36
2022-10-22T15:03:03.402Z,13.34
2022-10-22T15:05:32.149Z,13.35
2022-10-22T15:07:59.570Z,13.35
2022-10-22T15:10:29.348Z,13.34
2022-10-22T15:12:56.956Z,13.32
2022-10-22T15:15:25.594Z,13.28
2022-10-22T15:17:56.357Z,13.25
2022-10-22T15:20:23.565Z,13.27
2022-10-22T15:22:51.097Z,13.28
2022-10-22T15:25:18.887Z,13.28
2022-10-22T15:27:50.374Z,13.30
2022-10-22T15:30:19.434Z,13.27
2022-10-22T15:32:47.232Z,13.25
2022-10-22T15:35:15.387Z,13.24
2022-10-22T15:37:43.109Z,13.26
2022-10-22T15:40:11.567Z,13.25
2022-10-22T15:42:39.275Z,13.24
2022-10-22T15:45:10.119Z,13.25
2022-10-22T15:47:37.463Z,13.27
2022-10-22T15:50:05.087Z,13.31
2022-10-22T15:52:32.633Z,13.31
2022-10-22T15:54:59.762Z,13.32
2022-10-22T15:57:27.915Z,13.30
2022-10-22T15:59:55.364Z,13.28
2022-10-22T16:02:27.887Z,13.29
2022-10-22T16:04:54.921Z,13.29
2022-10-22T16:07:24.006Z,13.31
2022-10-22T16:09:56.343Z,13.29
2022-10-22T16:12:23.650Z,13.29
2022-10-22T16:14:51.818Z,13.26
2022-10-22T16:17:19.967Z,13.26
2022-10-22T16:19:49.846Z,13.27
2022-10-22T16:22:18.219Z,13.28
2022-10-22T16:24:45.737Z,13.29
2022-10-22T16:27:13.432Z,13.25
2022-10-22T16:29:42.048Z,13.21
2022-10-22T16:32:09.791Z,13.15
2022-10-22T16:34:38.492Z,13.13
2022-10-22T16:37:08.351Z,13.12
2022-10-22T16:39:35.835Z,13.12
2022-10-22T16:42:02.785Z,13.11
2022-10-22T16:44:30.709Z,13.10
2022-10-22T16:46:58.156Z,13.10
2022-10-22T16:49:25.507Z,13.08
2022-10-22T16:51:53.999Z,13.05
2022-10-22T16:54:23.082Z,13.04
2022-10-22T16:56:50.479Z,12.99
2022-10-22T16:59:19.251Z,12.96
2022-10-22T17:01:47.783Z,12.91
2022-10-22T17:04:16.664Z,12.89
2022-10-22T17:06:45.106Z,12.84
2022-10-22T17:09:13.295Z,12.77
2022-10-22T17:11:44.953Z,12.73
2022-10-22T17:14:14.729Z,12.67
2022-10-22T17:16:43.078Z,12.63
2022-10-22T17:19:16.172Z,12.58
2022-10-22T17:21:45.062Z,12.51
2022-10-22T17:24:13.143Z,12.42
2022-10-22T17:26:46.109Z,12.36
2022-10-22T17:29:16.109Z,12.31
2022-10-22T17:31:45.176Z,12.25
2022-10-22T17:34:18.336Z,12.19
2022-10-22T17:36:47.007Z,12.12
2022-10-22T17:39:18.590Z,12.07
2022-10-22T17:41:51.808Z,12.04
2022-10-22T17:44:20.131Z,12.01
2022-10-22T17:46:51.398Z,11.95
2022-10-22T17:49:21.928Z,11.91
2022-10-22T17:51:51.130Z,11.84
2022-10-22T17:54:20.075Z,11.77
2022-10-22T17:56:50.452Z,11.67
2022-10-22T17:59:19.023Z,11.62
2022-10-22T18:01:46.780Z,11.55
2022-10-22T18:04:17.962Z,11.50
2022-10-22T18:06:46.405Z,11.47
2022-10-22T18:09:18.478Z,11.39
2022-10-22T18:11:51.376Z,11.31
2022-10-22T18:14:22.344Z,11.27
2022-10-22T18:16:50.562Z,11.20
2022-10-22T18:19:19.945Z,11.13
2022-10-22T18:21:48.501Z,11.07
2022-10-22T18:24:19.242Z,11.04
2022-10-22T18:26:49.894Z,11.00
2022-10-22T18:29:19.216Z,10.93
2022-10-22T18:31:47.542Z,10.87
2022-10-22T18:34:17.627Z,10.86
2022-10-22T18:36:48.852Z,10.88
2022-10-22T18:39:17.742Z,10.86
2022-10-22T18:41:45.452Z,10.84
2022-10-22T18:44:16.039Z,10.84
2022-10-22T18:46:44.526Z,10.83
2022-10-22T18:49:19.391Z,10.79
2022-10-22T18:51:48.181Z,10.73
2022-10-22T18:54:24.738Z,10.69
2022-10-22T18:56:53.569Z,10.67
2022-10-22T18:59:26.136Z,10.62
2022-10-22T19:01:55.241Z,10.60
2022-10-22T19:04:22.981Z,10.55
2022-10-22T19:06:51.189Z,10.48
2022-10-22T19:09:18.750Z,10.40
2022-10-22T19:11:46.869Z,10.41
2022-10-22T19:14:14.843Z,10.37
2022-10-22T19:16:43.392Z,10.37
2022-10-22T19:19:18.900Z,10.37
2022-10-22T19:21:46.854Z,10.32
2022-10-22T19:24:20.537Z,10.28
2022-10-22T19:26:49.567Z,10.24
2022-10-22T19:29:19.939Z,10.20
2022-10-22T19:31:49.992Z,10.15
2022-10-22T19:34:19.113Z,10.12
2022-10-22T19:36:47.250Z,10.09
2022-10-22T19:39:16.272Z,10.05
2022-10-22T19:41:44.527Z,10.02
2022-10-22T19:44:13.769Z,10.00
2022-10-22T19:46:42.493Z,9.96
2022-10-22T19:49:12.894Z,9.92
2022-10-22T19:51:40.637Z,9.91
2022-10-22T19:54:12.716Z,9.88
2022-10-22T19:56:41.848Z,9.84
2022-10-22T19:59:09.981Z,9.79
2022-10-22T20:01:41.407Z,9.68
2022-10-22T20:04:14.106Z,9.63
2022-10-22T20:06:41.919Z,9.61
2022-10-22T20:09:09.379Z,9.57
2022-10-22T20:11:37.406Z,9.55
2022-10-22T20:14:04.958Z,9.50
2022-10-22T20:16:34.038Z,9.42
2022-10-22T20:19:03.907Z,9.39
2022-10-22T20:21:34.714Z,9.34
2022-10-22T20:24:02.478Z,9.29
2022-10-22T20:26:30.921Z,9.23
2022-10-22T20:28:59.106Z,9.18
2022-10-22T20:31:28.816Z,9.15
2022-10-22T20:33:57.911Z,9.16
2022-10-22T20:36:26.730Z,9.13
2022-10-22T20:39:00.201Z,9.09
2022-10-22T20:41:27.865Z,9.05
2022-10-22T20:43:56.205Z,9.05
2022-10-22T20:46:25.540Z,9.12
2022-10-22T20:48:55.027Z,9.16
2022-10-22T20:51:22.531Z,9.21
2022-10-22T20:53:51.297Z,9.27
2022-10-22T20:56:20.628Z,9.29
2022-10-22T20:58:49.094Z,9.32
2022-10-22T21:01:19.435Z,9.36
2022-10-22T21:03:46.532Z,9.40
2022-10-22T21:06:13.949Z,9.45
2022-10-22T21:08:41.209Z,9.47
2022-10-22T21:11:08.311Z,9.50
2022-10-22T21:13:37.634Z,9.56
2022-10-22T21:16:09.440Z,9.58
2022-10-22T21:18:36.936Z,9.59
2022-10-22T21:21:04.785Z,9.61
2022-10-22T21:23:32.007Z,9.65
2022-10-22T21:25:58.868Z,9.71
2022-10-22T21:28:26.130Z,9.70
2022-10-22T21:30:55.006Z,9.73
2022-10-22T21:33:22.134Z,9.76
2022-10-22T21:35:51.203Z,9.75
2022-10-22T21:38:18.275Z,9.73
2022-10-22T21:40:45.219Z,9.68
2022-10-22T21:43:12.632Z,9.57
2022-10-22T21:45:40.039Z,9.52
2022-10-22T21:48:09.118Z,9.49
2022-10-22T21:50:39.500Z,9.49
2022-10-22T21:53:06.726Z,9.46
2022-10-22T21:55:38.274Z,9.44
2022-10-22T21:58:05.737Z,9.48
2022-10-22T22:00:33.127Z,9.52
2022-10-22T22:03:00.342Z,9.55
2022-10-22T22:05:29.648Z,9.58
2022-10-22T22:07:57.002Z,9.62
2022-10-22T22:10:24.460Z,9.64
2022-10-22T22:12:51.576Z,9.67
2022-10-22T22:15:19.881Z,9.70
2022-10-22T22:17:47.261Z,9.68
2022-10-22T22:20:14.648Z,9.64
2022-10-22T22:22:44.338Z,9.60
2022-10-22T22:25:11.850Z,9.53
2022-10-22T22:27:39.344Z,9.51
2022-10-22T22:30:08.489Z,9.55
2022-10-22T22:32:35.910Z,9.52
2022-10-22T22:35:02.956Z,9.55
2022-10-22T22:37:30.383Z,9.57
2022-10-22T22:40:00.400Z,9.57
2022-10-22T22:42:27.488Z,9.55
2022-10-22T22:44:54.727Z,9.52
2022-10-22T22:47:21.794Z,9.49
2022-10-22T22:49:49.612Z,9.51
2022-10-22T22:52:17.110Z,9.51
2022-10-22T22:54:44.027Z,9.52
2022-10-22T22:57:13.767Z,9.50
2022-10-22T22:59:41.583Z,9.51
2022-10-22T23:02:08.807Z,9.55
2022-10-22T23:04:37.354Z,9.57
2022-10-22T23:07:04.804Z,9.59
2022-10-22T23:09:31.982Z,9.59
2022-10-22T23:11:59.213Z,9.61
2022-10-22T23:14:29.303Z,9.63
2022-10-22T23:16:56.525Z,9.65
2022-10-22T23:19:24.312Z,9.66
2022-10-22T23:21:53.921Z,9.63
2022-10-22T23:24:24.053Z,9.67
2022-10-22T23:26:53.614Z,9.68
2022-10-22T23:29:23.683Z,9.68
2022-10-22T23:31:53.905Z,9.66
2022-10-22T23:34:24.143Z,9.62
2022-10-22T23:36:52.367Z,9.64
2022-10-22T23:39:23.219Z,9.63
2022-10-22T23:41:50.638Z,9.61
2022-10-22T23:44:17.567Z,9.56
2022-10-22T23:46:44.817Z,9.56
2022-10-22T23:49:14.135Z,9.56
2022-10-22T23:51:41.846Z,9.56
2022-10-22T23:54:12.333Z,9.47
2022-10-22T23:56:39.969Z,9.47
2022-10-22T23:59:08.377Z,9.43
